Garrisonville, VA

12:58 AM EDT on September 16, 2014 (GMT -0400)
VADOT Fredricksburg | Change Station
CLOSE
Current Station
Personal Weather Station
Location: Garrisonville, VA
Elevation: 252 ft
Nearby Weather Stations

Elev 252 ft 38.47 °N, 77.49 °W | Updated 55 minutes ago

Clear
Clear
66 °F
Feels Like 66 °F
N
0
Wind Variable Wind from South
Gusts 1.0 mph

Today
High -- | Low -- °F
--% Chance of Precip.
Yesterday
High -- | Low -- °F
Precip. -- in
6:52 AM 7:16 PM
Waning Gibbous, 49% visible
Pressure 30.06 in
Visibility 10.0 miles
Clouds Clear
Dew Point 60 °F
Humidity 80%
Rainfall 0.00 in
Snow Depth Not available.
UV 0 out of 12
Pollen 4.60 out of 12
Air Quality Not available.
Flu Activity Not available.
METAR KRMN 160435Z AUTO 00000KT 10SM CLR 17/17 A3006 RMK AO2 T01720172

More Conditions Fewer Conditions

Pressure 30.06 in
Visibility 10.0 miles
Clouds Clear
Dew Point 60 °F
Humidity 80%
Rainfall 0.00 in
Snow Depth Not available.
UV 0 out of 12
Pollen 4.60 out of 12
Air Quality Not available.
Flu Activity Not available.
METAR KRMN 160435Z AUTO 00000KT 10SM CLR 17/17 A3006 RMK AO2 T01720172

More Conditions Fewer Conditions

10-Day Weather Forecast

Almanac

Astronomy

Sep. 16, 2014 Rise Set
Actual Time 6:52 AM EDT 7:16 PM EDT
Civil Twilight 6:25 AM EDT 7:43 PM EDT
Nautical Twilight 5:54 AM EDT 8:14 PM EDT
Astronomical Twilight 5:22 AM EDT 8:45 PM EDT
Moon 12:03 AM EDT 2:35 PM EDT
Length of Visible Light 13h 17m
Length of Day
12h 24m
Tomorrow will be 2m 28s shorter.
Waning Gibbous, 49% of the Moon is Illuminated
Today
Waning Gibbous
Sep 24
New
Oct 1
First Quarter
Oct 8
Full
Oct 15
Last Quarter

Today's Extremes

State Highs State Lows

Community

WunderPhotos

Upload Photos

1,753,702 photos uploaded!

Nearby

Snow Depth

Station Depth Elevation
No new snow has been reported.

Earthquake Activity

City Distance Mag. Time & Date
No recent earthquake activity has been reported nearby.
Minimum magnitude displayed is 2.5.

Coastal Water Temperatures

Place Temperature
Washington, DC 75.9 °F
Lewisetta, VA 73.9 °F
Solomons Island, MD 75.9 °F

Nearby Weather Stations